sensor_id;sensor_type;location;lat;lon;timestamp;pressure;altitude;pressure_sealevel;temperature;humidity
19777;BME280;10047;42.490;26.012;2022-11-20T00:01:42;99626.31;;;13.60;100.00
19777;BME280;10047;42.490;26.012;2022-11-20T00:04:09;99635.41;;;13.65;100.00
19777;BME280;10047;42.490;26.012;2022-11-20T00:06:35;99626.59;;;13.54;100.00
19777;BME280;10047;42.490;26.012;2022-11-20T00:09:00;99627.81;;;13.45;100.00
19777;BME280;10047;42.490;26.012;2022-11-20T00:11:27;99615.56;;;13.89;100.00
19777;BME280;10047;42.490;26.012;2022-11-20T00:13:55;99660.47;;;14.12;100.00
19777;BME280;10047;42.490;26.012;2022-11-20T00:16:23;99670.06;;;14.25;100.00
19777;BME280;10047;42.490;26.012;2022-11-20T00:18:50;99601.25;;;13.85;100.00
19777;BME280;10047;42.490;26.012;2022-11-20T00:21:18;99631.81;;;14.22;100.00
19777;BME280;10047;42.490;26.012;2022-11-20T00:23:44;99593.97;;;13.77;100.00
19777;BME280;10047;42.490;26.012;2022-11-20T00:26:12;99621.88;;;13.63;100.00
19777;BME280;10047;42.490;26.012;2022-11-20T00:28:38;99658.31;;;13.85;100.00
19777;BME280;10047;42.490;26.012;2022-11-20T00:31:08;99665.50;;;13.77;100.00
19777;BME280;10047;42.490;26.012;2022-11-20T00:33:34;99659.63;;;13.94;100.00
19777;BME280;10047;42.490;26.012;2022-11-20T00:36:04;99655.16;;;14.16;100.00
19777;BME280;10047;42.490;26.012;2022-11-20T00:38:31;99597.19;;;13.81;100.00
19777;BME280;10047;42.490;26.012;2022-11-20T00:40:58;99645.16;;;14.12;100.00
19777;BME280;10047;42.490;26.012;2022-11-20T00:43:24;99645.84;;;13.97;100.00
19777;BME280;10047;42.490;26.012;2022-11-20T00:45:50;99604.75;;;13.84;100.00
19777;BME280;10047;42.490;26.012;2022-11-20T00:48:15;99637.75;;;14.06;100.00
19777;BME280;10047;42.490;26.012;2022-11-20T00:50:41;99630.69;;;14.11;100.00
19777;BME280;10047;42.490;26.012;2022-11-20T00:53:07;99605.22;;;14.09;100.00
19777;BME280;10047;42.490;26.012;2022-11-20T00:55:32;99645.06;;;14.32;100.00
19777;BME280;10047;42.490;26.012;2022-11-20T00:57:57;99558.31;;;13.57;100.00
19777;BME280;10047;42.490;26.012;2022-11-20T01:00:23;99639.94;;;14.32;100.00
19777;BME280;10047;42.490;26.012;2022-11-20T01:02:48;99585.00;;;14.39;100.00
19777;BME280;10047;42.490;26.012;2022-11-20T01:05:14;99617.50;;;14.37;100.00
19777;BME280;10047;42.490;26.012;2022-11-20T01:07:39;99626.94;;;14.86;100.00
19777;BME280;10047;42.490;26.012;2022-11-20T01:10:05;99614.81;;;14.90;100.00
19777;BME280;10047;42.490;26.012;2022-11-20T01:12:30;99564.06;;;15.13;100.00
19777;BME280;10047;42.490;26.012;2022-11-20T01:14:56;99550.16;;;15.02;100.00
19777;BME280;10047;42.490;26.012;2022-11-20T01:17:21;99559.75;;;15.29;100.00
19777;BME280;10047;42.490;26.012;2022-11-20T01:19:51;99546.63;;;15.04;100.00
19777;BME280;10047;42.490;26.012;2022-11-20T01:22:16;99565.09;;;14.94;100.00
19777;BME280;10047;42.490;26.012;2022-11-20T01:24:42;99565.81;;;14.80;100.00
19777;BME280;10047;42.490;26.012;2022-11-20T01:27:07;99531.44;;;14.53;100.00
19777;BME280;10047;42.490;26.012;2022-11-20T01:29:32;99606.16;;;14.92;100.00
19777;BME280;10047;42.490;26.012;2022-11-20T01:31:58;99610.59;;;14.89;100.00
19777;BME280;10047;42.490;26.012;2022-11-20T01:34:23;99567.50;;;14.64;100.00
19777;BME280;10047;42.490;26.012;2022-11-20T01:36:51;99585.59;;;14.61;100.00
19777;BME280;10047;42.490;26.012;2022-11-20T01:39:22;99539.59;;;14.44;100.00
19777;BME280;10047;42.490;26.012;2022-11-20T01:41:49;99593.22;;;14.78;100.00
19777;BME280;10047;42.490;26.012;2022-11-20T01:44:59;99543.03;;;14.43;100.00
19777;BME280;10047;42.490;26.012;2022-11-20T01:47:40;99578.75;;;14.61;100.00
19777;BME280;10047;42.490;26.012;2022-11-20T01:52:55;99557.03;;;15.79;100.00
19777;BME280;10047;42.490;26.012;2022-11-20T01:55:26;99546.69;;;16.54;100.00
19777;BME280;10047;42.490;26.012;2022-11-20T01:57:52;99563.78;;;16.39;100.00
19777;BME280;10047;42.490;26.012;2022-11-20T02:00:19;99554.69;;;16.20;100.00
19777;BME280;10047;42.490;26.012;2022-11-20T02:02:50;99510.28;;;16.33;100.00
19777;BME280;10047;42.490;26.012;2022-11-20T02:05:19;99567.63;;;16.46;100.00
19777;BME280;10047;42.490;26.012;2022-11-20T02:07:48;99574.09;;;16.82;100.00
19777;BME280;10047;42.490;26.012;2022-11-20T02:10:14;99564.44;;;17.13;100.00
19777;BME280;10047;42.490;26.012;2022-11-20T02:12:40;99526.78;;;17.00;100.00
19777;BME280;10047;42.490;26.012;2022-11-20T02:15:24;99480.78;;;16.69;100.00
19777;BME280;10047;42.490;26.012;2022-11-20T02:17:49;99563.16;;;17.20;100.00
19777;BME280;10047;42.490;26.012;2022-11-20T02:20:15;99489.81;;;16.88;100.00
19777;BME280;10047;42.490;26.012;2022-11-20T02:22:55;99555.13;;;16.98;100.00
19777;BME280;10047;42.490;26.012;2022-11-20T02:25:23;99555.59;;;17.05;100.00
19777;BME280;10047;42.490;26.012;2022-11-20T02:27:50;99489.09;;;16.86;100.00
19777;BME280;10047;42.490;26.012;2022-11-20T02:30:16;99543.16;;;17.11;100.00
19777;BME280;10047;42.490;26.012;2022-11-20T02:32:42;99544.63;;;17.15;100.00
19777;BME280;10047;42.490;26.012;2022-11-20T02:35:08;99538.03;;;17.11;100.00
19777;BME280;10047;42.490;26.012;2022-11-20T02:37:37;99535.47;;;17.11;100.00
19777;BME280;10047;42.490;26.012;2022-11-20T02:40:03;99539.97;;;17.08;100.00
19777;BME280;10047;42.490;26.012;2022-11-20T02:42:29;99524.53;;;17.22;100.00
19777;BME280;10047;42.490;26.012;2022-11-20T02:44:54;99510.22;;;17.18;100.00
19777;BME280;10047;42.490;26.012;2022-11-20T02:47:20;99541.59;;;17.23;100.00
19777;BME280;10047;42.490;26.012;2022-11-20T02:49:45;99508.72;;;17.01;100.00
19777;BME280;10047;42.490;26.012;2022-11-20T02:52:10;99533.78;;;17.24;100.00
19777;BME280;10047;42.490;26.012;2022-11-20T02:54:36;99535.25;;;17.28;100.00
19777;BME280;10047;42.490;26.012;2022-11-20T02:57:01;99527.94;;;17.22;100.00
19777;BME280;10047;42.490;26.012;2022-11-20T02:59:27;99523.00;;;17.46;100.00
19777;BME280;10047;42.490;26.012;2022-11-20T03:01:52;99505.66;;;17.35;100.00
19777;BME280;10047;42.490;26.012;2022-11-20T03:04:17;99518.44;;;17.37;100.00
19777;BME280;10047;42.490;26.012;2022-11-20T03:06:43;99539.28;;;17.32;100.00
19777;BME280;10047;42.490;26.012;2022-11-20T03:09:08;99534.31;;;17.29;100.00
19777;BME280;10047;42.490;26.012;2022-11-20T03:11:34;99479.44;;;17.04;100.00
19777;BME280;10047;42.490;26.012;2022-11-20T03:14:03;99423.41;;;16.70;100.00
19777;BME280;10047;42.490;26.012;2022-11-20T03:16:30;99534.69;;;17.23;100.00
19777;BME280;10047;42.490;26.012;2022-11-20T03:18:56;99524.81;;;17.17;100.00
19777;BME280;10047;42.490;26.012;2022-11-20T03:21:21;99523.72;;;17.07;100.00
19777;BME280;10047;42.490;26.012;2022-11-20T03:23:47;99536.25;;;17.26;100.00
19777;BME280;10047;42.490;26.012;2022-11-20T03:26:14;99533.91;;;17.23;100.00
19777;BME280;10047;42.490;26.012;2022-11-20T03:28:41;99517.03;;;17.19;100.00
19777;BME280;10047;42.490;26.012;2022-11-20T03:31:10;99445.69;;;16.69;100.00
19777;BME280;10047;42.490;26.012;2022-11-20T03:33:36;99508.75;;;16.87;100.00
19777;BME280;10047;42.490;26.012;2022-11-20T03:36:04;99542.38;;;17.38;100.00
19777;BME280;10047;42.490;26.012;2022-11-20T03:38:30;99538.34;;;17.33;100.00
19777;BME280;10047;42.490;26.012;2022-11-20T03:41:07;99527.44;;;17.30;100.00
19777;BME280;10047;42.490;26.012;2022-11-20T03:43:33;99479.38;;;16.91;100.00
19777;BME280;10047;42.490;26.012;2022-11-20T03:45:59;99542.13;;;17.28;100.00
19777;BME280;10047;42.490;26.012;2022-11-20T03:48:25;99533.03;;;17.37;100.00
19777;BME280;10047;42.490;26.012;2022-11-20T03:50:52;99496.69;;;17.02;100.00
19777;BME280;10047;42.490;26.012;2022-11-20T03:53:18;99539.47;;;17.29;100.00
19777;BME280;10047;42.490;26.012;2022-11-20T03:55:43;99557.81;;;17.23;100.00
19777;BME280;10047;42.490;26.012;2022-11-20T03:58:09;99529.63;;;16.95;100.00
19777;BME280;10047;42.490;26.012;2022-11-20T04:00:35;99540.53;;;17.13;100.00
19777;BME280;10047;42.490;26.012;2022-11-20T04:03:01;99489.69;;;16.77;100.00
19777;BME280;10047;42.490;26.012;2022-11-20T04:05:27;99508.56;;;16.76;100.00
19777;BME280;10047;42.490;26.012;2022-11-20T04:07:53;99497.91;;;16.82;100.00
19777;BME280;10047;42.490;26.012;2022-11-20T04:10:18;99506.09;;;17.15;100.00
19777;BME280;10047;42.490;26.012;2022-11-20T04:12:44;99548.84;;;17.30;100.00
19777;BME280;10047;42.490;26.012;2022-11-20T04:15:09;99535.47;;;17.11;100.00
19777;BME280;10047;42.490;26.012;2022-11-20T04:17:35;99482.03;;;16.90;100.00
19777;BME280;10047;42.490;26.012;2022-11-20T04:20:01;99557.44;;;17.29;100.00
19777;BME280;10047;42.490;26.012;2022-11-20T04:22:27;99512.19;;;17.00;100.00
19777;BME280;10047;42.490;26.012;2022-11-20T04:24:52;99487.72;;;16.95;100.00
19777;BME280;10047;42.490;26.012;2022-11-20T04:27:18;99512.53;;;17.08;100.00
19777;BME280;10047;42.490;26.012;2022-11-20T04:29:43;99517.31;;;17.14;100.00
19777;BME280;10047;42.490;26.012;2022-11-20T04:32:08;99510.94;;;16.93;100.00
19777;BME280;10047;42.490;26.012;2022-11-20T04:34:34;99530.53;;;16.94;100.00
19777;BME280;10047;42.490;26.012;2022-11-20T04:37:00;99541.91;;;16.90;100.00
19777;BME280;10047;42.490;26.012;2022-11-20T04:39:27;99485.19;;;16.67;100.00
19777;BME280;10047;42.490;26.012;2022-11-20T04:41:52;99528.34;;;17.02;100.00
19777;BME280;10047;42.490;26.012;2022-11-20T04:44:37;99457.59;;;16.56;100.00
19777;BME280;10047;42.490;26.012;2022-11-20T04:47:03;99517.97;;;17.04;100.00
19777;BME280;10047;42.490;26.012;2022-11-20T04:49:28;99537.13;;;16.98;100.00
19777;BME280;10047;42.490;26.012;2022-11-20T04:51:54;99508.44;;;16.78;100.00
19777;BME280;10047;42.490;26.012;2022-11-20T04:54:19;99548.41;;;17.10;100.00
19777;BME280;10047;42.490;26.012;2022-11-20T04:56:47;99499.13;;;16.77;100.00
19777;BME280;10047;42.490;26.012;2022-11-20T04:59:13;99542.88;;;17.16;100.00
19777;BME280;10047;42.490;26.012;2022-11-20T05:01:38;99495.72;;;16.76;100.00
19777;BME280;10047;42.490;26.012;2022-11-20T05:04:04;99478.66;;;16.75;100.00
19777;BME280;10047;42.490;26.012;2022-11-20T05:06:31;99475.78;;;16.94;100.00
19777;BME280;10047;42.490;26.012;2022-11-20T05:08:57;99489.69;;;17.04;100.00
19777;BME280;10047;42.490;26.012;2022-11-20T05:11:22;99539.56;;;17.28;100.00
19777;BME280;10047;42.490;26.012;2022-11-20T05:13:49;99536.25;;;17.26;100.00
19777;BME280;10047;42.490;26.012;2022-11-20T05:16:16;99535.25;;;17.28;100.00
19777;BME280;10047;42.490;26.012;2022-11-20T05:18:42;99506.56;;;17.08;100.00
19777;BME280;10047;42.490;26.012;2022-11-20T05:21:09;99530.66;;;17.19;100.00
19777;BME280;10047;42.490;26.012;2022-11-20T05:23:35;99522.06;;;17.20;100.00
19777;BME280;10047;42.490;26.012;2022-11-20T05:26:01;99540.00;;;17.34;100.00
19777;BME280;10047;42.490;26.012;2022-11-20T05:28:28;99504.56;;;17.13;100.00
19777;BME280;10047;42.490;26.012;2022-11-20T05:30:54;99524.84;;;17.44;100.00
19777;BME280;10047;42.490;26.012;2022-11-20T05:33:20;99539.06;;;17.50;100.00
19777;BME280;10047;42.490;26.012;2022-11-20T05:35:46;99549.69;;;17.44;100.00
19777;BME280;10047;42.490;26.012;2022-11-20T05:38:11;99558.25;;;17.44;100.00
19777;BME280;10047;42.490;26.012;2022-11-20T05:40:37;99569.91;;;17.50;100.00
19777;BME280;10047;42.490;26.012;2022-11-20T05:43:02;99568.66;;;17.28;100.00
19777;BME280;10047;42.490;26.012;2022-11-20T05:45:28;99552.91;;;17.06;100.00
19777;BME280;10047;42.490;26.012;2022-11-20T05:47:57;99543.84;;;16.87;100.00
19777;BME280;10047;42.490;26.012;2022-11-20T05:50:23;99561.94;;;16.85;100.00
19777;BME280;10047;42.490;26.012;2022-11-20T05:52:48;99577.88;;;16.76;100.00
19777;BME280;10047;42.490;26.012;2022-11-20T05:55:14;99566.69;;;16.63;100.00
19777;BME280;10047;42.490;26.012;2022-11-20T05:57:39;99574.56;;;16.60;100.00
19777;BME280;10047;42.490;26.012;2022-11-20T06:00:05;99541.41;;;16.27;100.00
19777;BME280;10047;42.490;26.012;2022-11-20T06:02:34;99539.13;;;16.37;100.00
19777;BME280;10047;42.490;26.012;2022-11-20T06:05:00;99563.28;;;16.48;100.00
19777;BME280;10047;42.490;26.012;2022-11-20T06:07:25;99543.78;;;16.30;100.00
19777;BME280;10047;42.490;26.012;2022-11-20T06:09:50;99586.84;;;16.55;100.00
19777;BME280;10047;42.490;26.012;2022-11-20T06:12:16;99544.09;;;16.10;100.00
19777;BME280;10047;42.490;26.012;2022-11-20T06:14:41;99552.50;;;16.28;100.00
19777;BME280;10047;42.490;26.012;2022-11-20T06:17:06;99592.72;;;16.57;100.00
19777;BME280;10047;42.490;26.012;2022-11-20T06:19:32;99587.72;;;16.40;100.00
19777;BME280;10047;42.490;26.012;2022-11-20T06:21:57;99546.31;;;16.16;100.00
19777;BME280;10047;42.490;26.012;2022-11-20T06:24:22;99577.56;;;16.53;100.00
19777;BME280;10047;42.490;26.012;2022-11-20T06:26:50;99550.94;;;16.25;100.00
19777;BME280;10047;42.490;26.012;2022-11-20T06:29:15;99543.66;;;16.47;100.00
19777;BME280;10047;42.490;26.012;2022-11-20T06:31:41;99566.59;;;16.65;100.00
19777;BME280;10047;42.490;26.012;2022-11-20T06:34:07;99591.34;;;16.66;100.00
19777;BME280;10047;42.490;26.012;2022-11-20T06:36:33;99598.75;;;16.56;100.00
19777;BME280;10047;42.490;26.012;2022-11-20T06:38:59;99615.53;;;16.76;100.00
19777;BME280;10047;42.490;26.012;2022-11-20T06:41:25;99554.03;;;16.88;100.00
19777;BME280;10047;42.490;26.012;2022-11-20T06:43:51;99617.75;;;17.24;100.00
19777;BME280;10047;42.490;26.012;2022-11-20T06:46:17;99629.59;;;16.84;100.00
19777;BME280;10047;42.490;26.012;2022-11-20T06:48:44;99576.31;;;16.60;100.00
19777;BME280;10047;42.490;26.012;2022-11-20T06:51:09;99620.06;;;16.86;100.00
19777;BME280;10047;42.490;26.012;2022-11-20T06:53:35;99635.84;;;16.94;100.00
19777;BME280;10047;42.490;26.012;2022-11-20T06:56:02;99641.19;;;17.05;100.00
19777;BME280;10047;42.490;26.012;2022-11-20T06:58:28;99586.50;;;16.89;100.00
19777;BME280;10047;42.490;26.012;2022-11-20T07:00:58;99589.97;;;16.60;100.00
19777;BME280;10047;42.490;26.012;2022-11-20T07:03:24;99582.81;;;16.51;100.00
19777;BME280;10047;42.490;26.012;2022-11-20T07:05:49;99652.44;;;16.89;100.00
19777;BME280;10047;42.490;26.012;2022-11-20T07:08:14;99590.69;;;16.76;100.00
19777;BME280;10047;42.490;26.012;2022-11-20T07:10:40;99647.22;;;17.04;100.00
19777;BME280;10047;42.490;26.012;2022-11-20T07:13:05;99627.50;;;16.91;100.00
19777;BME280;10047;42.490;26.012;2022-11-20T07:15:32;99622.63;;;17.28;100.00
19777;BME280;10047;42.490;26.012;2022-11-20T07:18:01;99592.28;;;16.93;100.00
19777;BME280;10047;42.490;26.012;2022-11-20T07:20:26;99635.38;;;17.30;100.00
19777;BME280;10047;42.490;26.012;2022-11-20T07:22:55;99641.81;;;17.37;100.00
19777;BME280;10047;42.490;26.012;2022-11-20T07:25:23;99559.00;;;16.91;100.00
19777;BME280;10047;42.490;26.012;2022-11-20T07:27:49;99628.84;;;17.39;100.00
19777;BME280;10047;42.490;26.012;2022-11-20T07:30:15;99617.00;;;17.36;100.00
19777;BME280;10047;42.490;26.012;2022-11-20T07:32:41;99636.94;;;17.61;100.00
19777;BME280;10047;42.490;26.012;2022-11-20T07:35:06;99614.16;;;17.55;100.00
19777;BME280;10047;42.490;26.012;2022-11-20T07:37:35;99648.25;;;17.71;100.00
19777;BME280;10047;42.490;26.012;2022-11-20T07:40:01;99647.09;;;17.62;100.00
19777;BME280;10047;42.490;26.012;2022-11-20T07:42:26;99634.03;;;17.65;100.00
19777;BME280;10047;42.490;26.012;2022-11-20T07:44:51;99632.66;;;17.74;100.00
19777;BME280;10047;42.490;26.012;2022-11-20T07:47:17;99591.22;;;17.52;100.00
19777;BME280;10047;42.490;26.012;2022-11-20T07:49:42;99559.22;;;17.29;100.00
19777;BME280;10047;42.490;26.012;2022-11-20T07:52:08;99630.56;;;17.93;100.00
19777;BME280;10047;42.490;26.012;2022-11-20T07:54:33;99546.41;;;17.42;100.00
19777;BME280;10047;42.490;26.012;2022-11-20T07:56:58;99618.75;;;17.90;100.00
19777;BME280;10047;42.490;26.012;2022-11-20T07:59:24;99582.56;;;17.67;100.00
19777;BME280;10047;42.490;26.012;2022-11-20T08:01:49;99580.41;;;17.73;100.00
19777;BME280;10047;42.490;26.012;2022-11-20T08:04:15;99591.78;;;17.69;100.00
19777;BME280;10047;42.490;26.012;2022-11-20T08:06:41;99593.53;;;17.95;100.00
19777;BME280;10047;42.490;26.012;2022-11-20T08:09:06;99630.28;;;17.97;100.00
19777;BME280;10047;42.490;26.012;2022-11-20T08:11:32;99586.84;;;17.93;100.00
19777;BME280;10047;42.490;26.012;2022-11-20T08:14:16;99590.84;;;17.97;100.00
19777;BME280;10047;42.490;26.012;2022-11-20T08:16:49;99588.50;;;18.06;100.00
19777;BME280;10047;42.490;26.012;2022-11-20T08:19:16;99626.25;;;18.20;100.00
19777;BME280;10047;42.490;26.012;2022-11-20T08:21:42;99618.59;;;18.18;100.00
19777;BME280;10047;42.490;26.012;2022-11-20T08:24:09;99606.13;;;18.12;100.00
19777;BME280;10047;42.490;26.012;2022-11-20T08:26:35;99594.19;;;18.11;100.00
19777;BME280;10047;42.490;26.012;2022-11-20T08:29:02;99635.19;;;18.27;100.00
19777;BME280;10047;42.490;26.012;2022-11-20T08:31:28;99632.94;;;18.35;100.00
19777;BME280;10047;42.490;26.012;2022-11-20T08:33:54;99583.88;;;17.99;100.00
19777;BME280;10047;42.490;26.012;2022-11-20T08:36:21;99645.31;;;18.30;100.00
19777;BME280;10047;42.490;26.012;2022-11-20T08:38:48;99648.41;;;18.35;100.00
19777;BME280;10047;42.490;26.012;2022-11-20T08:41:13;99600.97;;;18.12;100.00
19777;BME280;10047;42.490;26.012;2022-11-20T08:43:59;99593.91;;;18.16;100.00
19777;BME280;10047;42.490;26.012;2022-11-20T08:46:26;99607.81;;;18.26;100.00
19777;BME280;10047;42.490;26.012;2022-11-20T08:48:52;99639.94;;;18.60;100.00
19777;BME280;10047;42.490;26.012;2022-11-20T08:51:19;99625.19;;;18.49;100.00
19777;BME280;10047;42.490;26.012;2022-11-20T08:53:44;99637.56;;;18.69;100.00
19777;BME280;10047;42.490;26.012;2022-11-20T08:56:10;99572.34;;;18.44;100.00
19777;BME280;10047;42.490;26.012;2022-11-20T08:58:37;99576.75;;;18.42;100.00
19777;BME280;10047;42.490;26.012;2022-11-20T09:01:02;99627.25;;;18.82;100.00
19777;BME280;10047;42.490;26.012;2022-11-20T09:03:27;99578.44;;;18.55;100.00
19777;BME280;10047;42.490;26.012;2022-11-20T09:05:57;99590.91;;;18.61;100.00
19777;BME280;10047;42.490;26.012;2022-11-20T09:08:24;99599.84;;;18.68;100.00
19777;BME280;10047;42.490;26.012;2022-11-20T09:10:54;99632.06;;;19.12;100.00
19777;BME280;10047;42.490;26.012;2022-11-20T09:13:20;99601.78;;;19.02;100.00
19777;BME280;10047;42.490;26.012;2022-11-20T09:15:46;99568.34;;;18.77;100.00
19777;BME280;10047;42.490;26.012;2022-11-20T09:18:12;99583.56;;;18.80;100.00
19777;BME280;10047;42.490;26.012;2022-11-20T09:20:38;99551.03;;;18.79;100.00
19777;BME280;10047;42.490;26.012;2022-11-20T09:23:03;99596.34;;;19.07;100.00
19777;BME280;10047;42.490;26.012;2022-11-20T09:25:28;99605.56;;;19.10;100.00
19777;BME280;10047;42.490;26.012;2022-11-20T09:27:55;99512.63;;;18.64;100.00
19777;BME280;10047;42.490;26.012;2022-11-20T09:30:21;99591.78;;;19.11;100.00
19777;BME280;10047;42.490;26.012;2022-11-20T09:32:46;99594.25;;;19.12;100.00
19777;BME280;10047;42.490;26.012;2022-11-20T09:35:12;99569.31;;;19.00;100.00
19777;BME280;10047;42.490;26.012;2022-11-20T09:37:37;99562.59;;;19.10;100.00
19777;BME280;10047;42.490;26.012;2022-11-20T09:40:03;99605.44;;;19.49;100.00
19777;BME280;10047;42.490;26.012;2022-11-20T09:45:12;99603.22;;;19.55;100.00
19777;BME280;10047;42.490;26.012;2022-11-20T09:55:50;99531.81;;;19.32;100.00
19777;BME280;10047;42.490;26.012;2022-11-20T09:58:28;99572.41;;;19.54;100.00
19777;BME280;10047;42.490;26.012;2022-11-20T10:01:03;99579.50;;;19.63;100.00
19777;BME280;10047;42.490;26.012;2022-11-20T10:04:04;99484.97;;;19.15;100.00
19777;BME280;10047;42.490;26.012;2022-11-20T10:09:28;99557.16;;;19.74;100.00
19777;BME280;10047;42.490;26.012;2022-11-20T10:23:09;99537.81;;;19.80;100.00
19777;BME280;10047;42.490;26.012;2022-11-20T10:30:54;99469.09;;;19.44;100.00
19777;BME280;10047;42.490;26.012;2022-11-20T10:33:23;99492.72;;;19.62;100.00
19777;BME280;10047;42.490;26.012;2022-11-20T10:36:08;99546.56;;;20.01;100.00
19777;BME280;10047;42.490;26.012;2022-11-20T10:38:52;99531.66;;;20.05;100.00
19777;BME280;10047;42.490;26.012;2022-11-20T10:41:24;99551.06;;;20.10;100.00
19777;BME280;10047;42.490;26.012;2022-11-20T10:44:14;99556.31;;;20.09;100.00
19777;BME280;10047;42.490;26.012;2022-11-20T10:47:00;99504.56;;;19.99;100.00
19777;BME280;10047;42.490;26.012;2022-11-20T10:49:26;99509.50;;;20.02;100.00
19777;BME280;10047;42.490;26.012;2022-11-20T10:52:16;99556.41;;;20.31;100.00
19777;BME280;10047;42.490;26.012;2022-11-20T10:55:02;99521.31;;;19.94;100.00
19777;BME280;10047;42.490;26.012;2022-11-20T11:00:24;99502.44;;;19.93;100.00
19777;BME280;10047;42.490;26.012;2022-11-20T11:02:54;99543.38;;;20.21;100.00
19777;BME280;10047;42.490;26.012;2022-11-20T11:07:46;99521.59;;;20.02;100.00
19777;BME280;10047;42.490;26.012;2022-11-20T11:10:17;99479.63;;;19.76;100.00
19777;BME280;10047;42.490;26.012;2022-11-20T11:12:45;99490.56;;;19.79;100.00
19777;BME280;10047;42.490;26.012;2022-11-20T11:15:26;99515.00;;;19.98;100.00
19777;BME280;10047;42.490;26.012;2022-11-20T11:17:52;99474.16;;;19.80;100.00
19777;BME280;10047;42.490;26.012;2022-11-20T11:20:23;99477.44;;;19.82;100.00
19777;BME280;10047;42.490;26.012;2022-11-20T11:22:50;99513.59;;;20.05;100.00
19777;BME280;10047;42.490;26.012;2022-11-20T11:25:36;99512.09;;;20.02;100.00
19777;BME280;10047;42.490;26.012;2022-11-20T11:28:04;99473.97;;;19.71;100.00
19777;BME280;10047;42.490;26.012;2022-11-20T11:30:41;99511.25;;;19.91;100.00
19777;BME280;10047;42.490;26.012;2022-11-20T11:33:18;99441.13;;;19.51;100.00
19777;BME280;10047;42.490;26.012;2022-11-20T11:35:47;99481.97;;;19.79;100.00
19777;BME280;10047;42.490;26.012;2022-11-20T11:38:16;99508.03;;;19.87;100.00
19777;BME280;10047;42.490;26.012;2022-11-20T11:40:44;99479.63;;;19.76;100.00
19777;BME280;10047;42.490;26.012;2022-11-20T11:43:36;99489.06;;;19.88;100.00
19777;BME280;10047;42.490;26.012;2022-11-20T11:49:00;99424.50;;;19.66;100.00
19777;BME280;10047;42.490;26.012;2022-11-20T11:55:04;99467.72;;;19.97;100.00
19777;BME280;10047;42.490;26.012;2022-11-20T12:00:19;99468.72;;;20.18;100.00
19777;BME280;10047;42.490;26.012;2022-11-20T12:05:20;99422.91;;;19.98;100.00
19777;BME280;10047;42.490;26.012;2022-11-20T12:13:42;99457.47;;;20.30;100.00
19777;BME280;10047;42.490;26.012;2022-11-20T12:16:05;99443.63;;;20.20;100.00
19777;BME280;10047;42.490;26.012;2022-11-20T12:18:34;99396.63;;;19.93;100.00
19777;BME280;10047;42.490;26.012;2022-11-20T12:21:25;99454.06;;;20.19;100.00
19777;BME280;10047;42.490;26.012;2022-11-20T12:27:26;99450.03;;;20.15;100.00
19777;BME280;10047;42.490;26.012;2022-11-20T12:30:10;99404.72;;;19.88;100.00
19777;BME280;10047;42.490;26.012;2022-11-20T12:43:30;99430.09;;;19.95;100.00
19777;BME280;10047;42.490;26.012;2022-11-20T12:51:51;99411.78;;;19.86;100.00
19777;BME280;10047;42.490;26.012;2022-11-20T12:57:18;99467.19;;;20.27;100.00
19777;BME280;10047;42.490;26.012;2022-11-20T13:00:10;99462.63;;;20.30;100.00
19777;BME280;10047;42.490;26.012;2022-11-20T13:03:06;99410.72;;;20.00;100.00
19777;BME280;10047;42.490;26.012;2022-11-20T13:19:21;99441.28;;;20.39;100.00
19777;BME280;10047;42.490;26.012;2022-11-20T13:21:49;99394.88;;;20.05;100.00
19777;BME280;10047;42.490;26.012;2022-11-20T13:26:44;99444.53;;;20.30;100.00
19777;BME280;10047;42.490;26.012;2022-11-20T13:29:15;99440.69;;;20.36;100.00
19777;BME280;10047;42.490;26.012;2022-11-20T13:31:44;99452.53;;;20.38;100.00
19777;BME280;10047;42.490;26.012;2022-11-20T13:34:13;99398.75;;;20.10;100.00
19777;BME280;10047;42.490;26.012;2022-11-20T13:36:52;99448.78;;;20.42;100.00
19777;BME280;10047;42.490;26.012;2022-11-20T13:39:34;99449.25;;;20.36;100.00
19777;BME280;10047;42.490;26.012;2022-11-20T13:42:54;99429.50;;;20.13;100.00
19777;BME280;10047;42.490;26.012;2022-11-20T13:44:52;99452.06;;;20.44;100.00
19777;BME280;10047;42.490;26.012;2022-11-20T13:47:28;99400.28;;;20.13;100.00
19777;BME280;10047;42.490;26.012;2022-11-20T13:49:55;99453.69;;;20.34;100.00
19777;BME280;10047;42.490;26.012;2022-11-20T13:56:01;99421.88;;;20.12;100.00
19777;BME280;10047;42.490;26.012;2022-11-20T13:58:44;99413.06;;;20.03;100.00
19777;BME280;10047;42.490;26.012;2022-11-20T14:01:16;99429.28;;;20.16;100.00
19777;BME280;10047;42.490;26.012;2022-11-20T14:03:43;99429.50;;;20.13;100.00
19777;BME280;10047;42.490;26.012;2022-11-20T14:06:30;99401.00;;;19.93;100.00
19777;BME280;10047;42.490;26.012;2022-11-20T14:08:57;99380.19;;;19.83;100.00
19777;BME280;10047;42.490;26.012;2022-11-20T14:11:28;99384.78;;;19.79;100.00
19777;BME280;10047;42.490;26.012;2022-11-20T14:14:04;99423.38;;;20.03;100.00
19777;BME280;10047;42.490;26.012;2022-11-20T14:16:34;99384.41;;;19.73;100.00
19777;BME280;10047;42.490;26.012;2022-11-20T14:21:48;99394.13;;;19.58;100.00
19777;BME280;10047;42.490;26.012;2022-11-20T14:24:19;99425.84;;;19.82;100.00
19777;BME280;10047;42.490;26.012;2022-11-20T14:26:45;99423.22;;;19.71;100.00
19777;BME280;10047;42.490;26.012;2022-11-20T14:29:26;99368.16;;;19.38;100.00